sensor_id;sensor_type;location;lat;lon;timestamp;P1;durP1;ratioP1;P2;durP2;ratioP2
15043;SDS011;7619;48.562;8.910;2023-04-16T00:00:43;1.77;;;1.67;;
15043;SDS011;7619;48.562;8.910;2023-04-16T00:03:12;2.30;;;2.10;;
15043;SDS011;7619;48.562;8.910;2023-04-16T00:05:40;2.17;;;1.97;;
15043;SDS011;7619;48.562;8.910;2023-04-16T00:08:08;4.70;;;1.87;;
15043;SDS011;7619;48.562;8.910;2023-04-16T00:10:36;2.60;;;2.40;;
15043;SDS011;7619;48.562;8.910;2023-04-16T00:13:04;3.03;;;2.03;;
15043;SDS011;7619;48.562;8.910;2023-04-16T00:15:32;3.60;;;2.27;;
15043;SDS011;7619;48.562;8.910;2023-04-16T00:18:00;3.07;;;2.57;;
15043;SDS011;7619;48.562;8.910;2023-04-16T00:20:28;3.23;;;2.37;;
15043;SDS011;7619;48.562;8.910;2023-04-16T00:22:57;3.10;;;2.30;;
15043;SDS011;7619;48.562;8.910;2023-04-16T00:25:25;2.77;;;2.47;;
15043;SDS011;7619;48.562;8.910;2023-04-16T00:27:53;2.87;;;2.60;;
15043;SDS011;7619;48.562;8.910;2023-04-16T00:30:21;3.40;;;3.10;;
15043;SDS011;7619;48.562;8.910;2023-04-16T00:32:49;6.10;;;3.50;;
15043;SDS011;7619;48.562;8.910;2023-04-16T00:35:17;3.80;;;3.30;;
15043;SDS011;7619;48.562;8.910;2023-04-16T00:37:46;3.87;;;3.10;;
15043;SDS011;7619;48.562;8.910;2023-04-16T00:40:14;3.50;;;3.07;;
15043;SDS011;7619;48.562;8.910;2023-04-16T00:42:41;3.87;;;3.33;;
15043;SDS011;7619;48.562;8.910;2023-04-16T00:45:10;3.73;;;3.20;;
15043;SDS011;7619;48.562;8.910;2023-04-16T00:47:38;3.47;;;3.10;;
15043;SDS011;7619;48.562;8.910;2023-04-16T00:50:07;4.10;;;3.23;;
15043;SDS011;7619;48.562;8.910;2023-04-16T00:52:35;4.40;;;3.47;;
15043;SDS011;7619;48.562;8.910;2023-04-16T00:55:05;8.33;;;3.10;;
15043;SDS011;7619;48.562;8.910;2023-04-16T00:57:33;3.57;;;3.17;;
15043;SDS011;7619;48.562;8.910;2023-04-16T01:00:02;4.20;;;3.60;;
15043;SDS011;7619;48.562;8.910;2023-04-16T01:02:30;3.30;;;3.00;;
15043;SDS011;7619;48.562;8.910;2023-04-16T01:04:58;4.23;;;3.83;;
15043;SDS011;7619;48.562;8.910;2023-04-16T01:07:26;3.57;;;3.20;;
15043;SDS011;7619;48.562;8.910;2023-04-16T01:09:54;3.80;;;3.43;;
15043;SDS011;7619;48.562;8.910;2023-04-16T01:12:22;3.90;;;3.30;;
15043;SDS011;7619;48.562;8.910;2023-04-16T01:14:51;4.07;;;3.40;;
15043;SDS011;7619;48.562;8.910;2023-04-16T01:17:19;3.97;;;3.40;;
15043;SDS011;7619;48.562;8.910;2023-04-16T01:19:47;3.57;;;3.27;;
15043;SDS011;7619;48.562;8.910;2023-04-16T01:22:15;4.20;;;3.67;;
15043;SDS011;7619;48.562;8.910;2023-04-16T01:24:43;3.27;;;2.97;;
15043;SDS011;7619;48.562;8.910;2023-04-16T01:27:11;5.50;;;3.40;;
15043;SDS011;7619;48.562;8.910;2023-04-16T01:29:39;3.40;;;2.93;;
15043;SDS011;7619;48.562;8.910;2023-04-16T01:32:07;3.40;;;3.10;;
15043;SDS011;7619;48.562;8.910;2023-04-16T01:34:35;2.93;;;2.73;;
15043;SDS011;7619;48.562;8.910;2023-04-16T01:37:03;4.30;;;3.20;;
15043;SDS011;7619;48.562;8.910;2023-04-16T01:39:31;6.93;;;2.77;;
15043;SDS011;7619;48.562;8.910;2023-04-16T01:41:59;3.73;;;3.30;;
15043;SDS011;7619;48.562;8.910;2023-04-16T01:44:28;3.33;;;3.00;;
15043;SDS011;7619;48.562;8.910;2023-04-16T01:46:57;3.40;;;2.80;;
15043;SDS011;7619;48.562;8.910;2023-04-16T01:49:25;2.80;;;2.50;;
15043;SDS011;7619;48.562;8.910;2023-04-16T01:51:53;4.77;;;3.10;;
15043;SDS011;7619;48.562;8.910;2023-04-16T01:54:21;3.53;;;2.77;;
15043;SDS011;7619;48.562;8.910;2023-04-16T01:56:49;3.03;;;2.73;;
15043;SDS011;7619;48.562;8.910;2023-04-16T01:59:17;2.83;;;2.53;;
15043;SDS011;7619;48.562;8.910;2023-04-16T02:01:45;2.63;;;2.43;;
15043;SDS011;7619;48.562;8.910;2023-04-16T02:04:13;3.63;;;2.47;;
15043;SDS011;7619;48.562;8.910;2023-04-16T02:06:41;2.17;;;1.93;;
15043;SDS011;7619;48.562;8.910;2023-04-16T02:09:10;3.40;;;3.00;;
15043;SDS011;7619;48.562;8.910;2023-04-16T02:11:38;2.77;;;2.40;;
15043;SDS011;7619;48.562;8.910;2023-04-16T02:14:06;2.40;;;2.20;;
15043;SDS011;7619;48.562;8.910;2023-04-16T02:16:34;2.93;;;2.33;;
15043;SDS011;7619;48.562;8.910;2023-04-16T02:19:02;2.60;;;2.00;;
15043;SDS011;7619;48.562;8.910;2023-04-16T02:21:31;2.60;;;2.40;;
15043;SDS011;7619;48.562;8.910;2023-04-16T02:23:59;2.40;;;2.20;;
15043;SDS011;7619;48.562;8.910;2023-04-16T02:26:27;2.33;;;2.13;;
15043;SDS011;7619;48.562;8.910;2023-04-16T02:28:55;2.30;;;2.10;;
15043;SDS011;7619;48.562;8.910;2023-04-16T02:31:23;2.40;;;2.20;;
15043;SDS011;7619;48.562;8.910;2023-04-16T02:33:51;2.07;;;1.87;;
15043;SDS011;7619;48.562;8.910;2023-04-16T02:36:19;2.13;;;1.93;;
15043;SDS011;7619;48.562;8.910;2023-04-16T02:38:47;1.63;;;1.53;;
15043;SDS011;7619;48.562;8.910;2023-04-16T02:41:15;1.77;;;1.47;;
15043;SDS011;7619;48.562;8.910;2023-04-16T02:43:43;1.80;;;1.60;;
15043;SDS011;7619;48.562;8.910;2023-04-16T02:46:11;1.47;;;1.37;;
15043;SDS011;7619;48.562;8.910;2023-04-16T02:48:39;1.70;;;1.60;;
15043;SDS011;7619;48.562;8.910;2023-04-16T02:51:07;1.80;;;1.63;;
15043;SDS011;7619;48.562;8.910;2023-04-16T02:53:35;1.60;;;1.50;;
15043;SDS011;7619;48.562;8.910;2023-04-16T02:56:04;1.27;;;1.07;;
15043;SDS011;7619;48.562;8.910;2023-04-16T02:58:32;1.50;;;1.13;;
15043;SDS011;7619;48.562;8.910;2023-04-16T03:01:00;1.10;;;1.10;;
15043;SDS011;7619;48.562;8.910;2023-04-16T03:03:28;1.13;;;1.03;;
15043;SDS011;7619;48.562;8.910;2023-04-16T03:05:56;1.67;;;1.23;;
15043;SDS011;7619;48.562;8.910;2023-04-16T03:08:25;1.37;;;1.27;;
15043;SDS011;7619;48.562;8.910;2023-04-16T03:10:53;1.63;;;1.50;;
15043;SDS011;7619;48.562;8.910;2023-04-16T03:13:21;1.30;;;1.17;;
15043;SDS011;7619;48.562;8.910;2023-04-16T03:15:49;1.60;;;1.50;;
15043;SDS011;7619;48.562;8.910;2023-04-16T03:18:17;3.63;;;1.50;;
15043;SDS011;7619;48.562;8.910;2023-04-16T03:20:45;1.80;;;1.70;;
15043;SDS011;7619;48.562;8.910;2023-04-16T03:23:15;1.80;;;1.63;;
15043;SDS011;7619;48.562;8.910;2023-04-16T03:25:43;2.10;;;1.70;;
15043;SDS011;7619;48.562;8.910;2023-04-16T03:28:13;2.20;;;1.80;;
15043;SDS011;7619;48.562;8.910;2023-04-16T03:30:41;1.97;;;1.57;;
15043;SDS011;7619;48.562;8.910;2023-04-16T03:33:10;2.10;;;1.90;;
15043;SDS011;7619;48.562;8.910;2023-04-16T03:35:38;2.27;;;1.93;;
15043;SDS011;7619;48.562;8.910;2023-04-16T03:38:05;3.27;;;2.77;;
15043;SDS011;7619;48.562;8.910;2023-04-16T03:40:34;4.43;;;3.37;;
15043;SDS011;7619;48.562;8.910;2023-04-16T03:43:02;4.53;;;3.43;;
15043;SDS011;7619;48.562;8.910;2023-04-16T03:45:30;3.97;;;3.10;;
15043;SDS011;7619;48.562;8.910;2023-04-16T03:47:58;5.93;;;4.47;;
15043;SDS011;7619;48.562;8.910;2023-04-16T03:50:26;5.53;;;4.30;;
15043;SDS011;7619;48.562;8.910;2023-04-16T03:52:54;4.83;;;4.07;;
15043;SDS011;7619;48.562;8.910;2023-04-16T03:55:22;6.97;;;4.83;;
15043;SDS011;7619;48.562;8.910;2023-04-16T03:57:50;6.70;;;4.33;;
15043;SDS011;7619;48.562;8.910;2023-04-16T04:00:18;6.40;;;4.77;;
15043;SDS011;7619;48.562;8.910;2023-04-16T04:02:46;7.77;;;5.03;;
15043;SDS011;7619;48.562;8.910;2023-04-16T04:05:15;5.63;;;4.13;;
15043;SDS011;7619;48.562;8.910;2023-04-16T04:07:42;6.33;;;4.80;;
15043;SDS011;7619;48.562;8.910;2023-04-16T04:10:11;7.10;;;4.73;;
15043;SDS011;7619;48.562;8.910;2023-04-16T04:12:39;6.53;;;4.83;;
15043;SDS011;7619;48.562;8.910;2023-04-16T04:15:08;5.50;;;4.20;;
15043;SDS011;7619;48.562;8.910;2023-04-16T04:17:36;8.23;;;4.00;;
15043;SDS011;7619;48.562;8.910;2023-04-16T04:20:05;6.80;;;4.27;;
15043;SDS011;7619;48.562;8.910;2023-04-16T04:22:33;5.97;;;3.90;;
15043;SDS011;7619;48.562;8.910;2023-04-16T04:25:01;5.03;;;3.80;;
15043;SDS011;7619;48.562;8.910;2023-04-16T04:27:29;5.23;;;3.83;;
15043;SDS011;7619;48.562;8.910;2023-04-16T04:29:57;5.03;;;4.20;;
15043;SDS011;7619;48.562;8.910;2023-04-16T04:32:25;4.80;;;3.67;;
15043;SDS011;7619;48.562;8.910;2023-04-16T04:34:53;4.17;;;3.60;;
15043;SDS011;7619;48.562;8.910;2023-04-16T04:37:21;5.23;;;4.00;;
15043;SDS011;7619;48.562;8.910;2023-04-16T04:39:49;5.50;;;4.27;;
15043;SDS011;7619;48.562;8.910;2023-04-16T04:42:18;4.57;;;3.50;;
15043;SDS011;7619;48.562;8.910;2023-04-16T04:44:46;4.10;;;2.70;;
15043;SDS011;7619;48.562;8.910;2023-04-16T04:47:14;5.60;;;3.47;;
15043;SDS011;7619;48.562;8.910;2023-04-16T04:49:42;5.10;;;3.70;;
15043;SDS011;7619;48.562;8.910;2023-04-16T04:52:10;4.40;;;3.23;;
15043;SDS011;7619;48.562;8.910;2023-04-16T04:54:38;3.70;;;3.03;;
15043;SDS011;7619;48.562;8.910;2023-04-16T04:57:07;3.53;;;3.00;;
15043;SDS011;7619;48.562;8.910;2023-04-16T04:59:35;4.40;;;2.47;;
15043;SDS011;7619;48.562;8.910;2023-04-16T05:02:03;3.00;;;2.70;;
15043;SDS011;7619;48.562;8.910;2023-04-16T05:04:31;3.40;;;2.73;;
15043;SDS011;7619;48.562;8.910;2023-04-16T05:06:59;3.53;;;2.87;;
15043;SDS011;7619;48.562;8.910;2023-04-16T05:09:28;3.03;;;2.50;;
15043;SDS011;7619;48.562;8.910;2023-04-16T05:11:56;3.97;;;2.80;;
15043;SDS011;7619;48.562;8.910;2023-04-16T05:14:24;3.47;;;2.60;;
15043;SDS011;7619;48.562;8.910;2023-04-16T05:16:52;2.63;;;2.33;;
15043;SDS011;7619;48.562;8.910;2023-04-16T05:19:20;3.10;;;2.40;;
15043;SDS011;7619;48.562;8.910;2023-04-16T05:21:48;2.53;;;2.17;;
15043;SDS011;7619;48.562;8.910;2023-04-16T05:24:16;2.90;;;2.53;;
15043;SDS011;7619;48.562;8.910;2023-04-16T05:26:44;3.13;;;2.20;;
15043;SDS011;7619;48.562;8.910;2023-04-16T05:31:49;2.87;;;2.57;;
15043;SDS011;7619;48.562;8.910;2023-04-16T05:36:53;4.33;;;2.70;;
15043;SDS011;7619;48.562;8.910;2023-04-16T05:39:21;5.17;;;3.90;;
15043;SDS011;7619;48.562;8.910;2023-04-16T05:41:49;7.37;;;4.60;;
15043;SDS011;7619;48.562;8.910;2023-04-16T05:44:17;10.20;;;5.30;;
15043;SDS011;7619;48.562;8.910;2023-04-16T05:46:45;8.13;;;5.17;;
15043;SDS011;7619;48.562;8.910;2023-04-16T05:49:14;6.23;;;4.87;;
15043;SDS011;7619;48.562;8.910;2023-04-16T05:51:42;8.47;;;5.70;;
15043;SDS011;7619;48.562;8.910;2023-04-16T05:54:10;9.97;;;6.17;;
15043;SDS011;7619;48.562;8.910;2023-04-16T05:56:38;7.90;;;5.73;;
15043;SDS011;7619;48.562;8.910;2023-04-16T05:59:06;9.73;;;6.20;;
15043;SDS011;7619;48.562;8.910;2023-04-16T06:01:34;9.53;;;5.77;;
15043;SDS011;7619;48.562;8.910;2023-04-16T06:04:02;7.73;;;5.27;;
15043;SDS011;7619;48.562;8.910;2023-04-16T06:06:30;9.43;;;5.70;;
15043;SDS011;7619;48.562;8.910;2023-04-16T06:08:58;11.70;;;6.87;;
15043;SDS011;7619;48.562;8.910;2023-04-16T06:11:27;10.53;;;6.73;;
15043;SDS011;7619;48.562;8.910;2023-04-16T06:13:56;8.83;;;6.13;;
15043;SDS011;7619;48.562;8.910;2023-04-16T06:16:24;11.83;;;6.30;;
15043;SDS011;7619;48.562;8.910;2023-04-16T06:18:52;10.57;;;6.27;;
15043;SDS011;7619;48.562;8.910;2023-04-16T06:21:20;12.00;;;6.60;;
15043;SDS011;7619;48.562;8.910;2023-04-16T06:23:48;11.93;;;6.73;;
15043;SDS011;7619;48.562;8.910;2023-04-16T06:26:16;10.17;;;7.37;;
15043;SDS011;7619;48.562;8.910;2023-04-16T06:28:44;11.90;;;7.13;;
15043;SDS011;7619;48.562;8.910;2023-04-16T06:31:12;12.03;;;7.33;;
15043;SDS011;7619;48.562;8.910;2023-04-16T06:33:40;15.80;;;7.47;;
15043;SDS011;7619;48.562;8.910;2023-04-16T06:36:08;11.00;;;7.00;;
15043;SDS011;7619;48.562;8.910;2023-04-16T06:38:37;12.03;;;7.53;;
15043;SDS011;7619;48.562;8.910;2023-04-16T06:41:05;13.27;;;8.67;;
15043;SDS011;7619;48.562;8.910;2023-04-16T06:43:33;13.67;;;7.03;;
15043;SDS011;7619;48.562;8.910;2023-04-16T06:46:01;10.53;;;6.67;;
15043;SDS011;7619;48.562;8.910;2023-04-16T06:48:29;11.40;;;7.00;;
15043;SDS011;7619;48.562;8.910;2023-04-16T06:50:57;15.37;;;6.70;;
15043;SDS011;7619;48.562;8.910;2023-04-16T06:53:25;17.77;;;9.43;;
15043;SDS011;7619;48.562;8.910;2023-04-16T06:55:53;16.20;;;8.80;;
15043;SDS011;7619;48.562;8.910;2023-04-16T06:58:21;15.70;;;9.27;;
15043;SDS011;7619;48.562;8.910;2023-04-16T07:00:49;13.57;;;8.57;;
15043;SDS011;7619;48.562;8.910;2023-04-16T07:03:17;18.13;;;9.37;;
15043;SDS011;7619;48.562;8.910;2023-04-16T07:05:45;16.43;;;9.60;;
15043;SDS011;7619;48.562;8.910;2023-04-16T07:08:13;17.37;;;9.73;;
15043;SDS011;7619;48.562;8.910;2023-04-16T07:10:41;14.13;;;9.27;;
15043;SDS011;7619;48.562;8.910;2023-04-16T07:13:09;17.10;;;10.37;;
15043;SDS011;7619;48.562;8.910;2023-04-16T07:15:37;16.13;;;9.67;;
15043;SDS011;7619;48.562;8.910;2023-04-16T07:18:05;18.10;;;10.97;;
15043;SDS011;7619;48.562;8.910;2023-04-16T07:20:34;14.97;;;9.70;;
15043;SDS011;7619;48.562;8.910;2023-04-16T07:23:02;16.63;;;10.37;;
15043;SDS011;7619;48.562;8.910;2023-04-16T07:25:30;16.73;;;10.17;;
15043;SDS011;7619;48.562;8.910;2023-04-16T07:27:58;17.20;;;11.17;;
15043;SDS011;7619;48.562;8.910;2023-04-16T07:30:26;16.17;;;10.03;;
15043;SDS011;7619;48.562;8.910;2023-04-16T07:32:57;18.77;;;10.33;;
15043;SDS011;7619;48.562;8.910;2023-04-16T07:35:25;16.37;;;9.43;;
15043;SDS011;7619;48.562;8.910;2023-04-16T07:37:53;15.13;;;9.70;;
15043;SDS011;7619;48.562;8.910;2023-04-16T07:42:57;15.70;;;10.07;;
15043;SDS011;7619;48.562;8.910;2023-04-16T07:45:25;15.50;;;10.40;;
15043;SDS011;7619;48.562;8.910;2023-04-16T07:47:53;16.17;;;9.10;;
15043;SDS011;7619;48.562;8.910;2023-04-16T07:50:22;18.87;;;10.43;;
15043;SDS011;7619;48.562;8.910;2023-04-16T07:52:50;14.70;;;8.97;;
15043;SDS011;7619;48.562;8.910;2023-04-16T07:55:18;16.13;;;10.27;;
15043;SDS011;7619;48.562;8.910;2023-04-16T07:57:46;16.83;;;8.60;;
15043;SDS011;7619;48.562;8.910;2023-04-16T08:00:14;14.40;;;9.93;;
15043;SDS011;7619;48.562;8.910;2023-04-16T08:02:42;15.70;;;9.67;;
15043;SDS011;7619;48.562;8.910;2023-04-16T08:05:11;14.90;;;10.33;;
15043;SDS011;7619;48.562;8.910;2023-04-16T08:07:39;18.73;;;9.73;;
15043;SDS011;7619;48.562;8.910;2023-04-16T08:10:08;15.53;;;9.63;;
15043;SDS011;7619;48.562;8.910;2023-04-16T08:12:36;16.80;;;9.77;;
15043;SDS011;7619;48.562;8.910;2023-04-16T08:15:05;14.30;;;8.93;;
15043;SDS011;7619;48.562;8.910;2023-04-16T08:17:33;13.30;;;9.50;;
15043;SDS011;7619;48.562;8.910;2023-04-16T08:20:03;13.00;;;9.10;;
15043;SDS011;7619;48.562;8.910;2023-04-16T08:22:32;15.87;;;9.60;;
15043;SDS011;7619;48.562;8.910;2023-04-16T08:25:00;11.93;;;7.57;;
15043;SDS011;7619;48.562;8.910;2023-04-16T08:27:28;13.40;;;8.60;;
15043;SDS011;7619;48.562;8.910;2023-04-16T08:29:56;15.97;;;9.60;;
15043;SDS011;7619;48.562;8.910;2023-04-16T08:32:24;12.43;;;9.13;;
15043;SDS011;7619;48.562;8.910;2023-04-16T08:34:53;11.23;;;7.93;;
15043;SDS011;7619;48.562;8.910;2023-04-16T08:37:21;15.27;;;8.43;;
15043;SDS011;7619;48.562;8.910;2023-04-16T08:39:49;13.33;;;9.30;;
15043;SDS011;7619;48.562;8.910;2023-04-16T08:42:20;11.83;;;8.30;;
15043;SDS011;7619;48.562;8.910;2023-04-16T08:44:48;15.83;;;8.37;;
15043;SDS011;7619;48.562;8.910;2023-04-16T08:47:18;11.63;;;7.30;;
15043;SDS011;7619;48.562;8.910;2023-04-16T08:49:47;15.10;;;8.17;;
15043;SDS011;7619;48.562;8.910;2023-04-16T08:52:17;12.37;;;7.83;;
15043;SDS011;7619;48.562;8.910;2023-04-16T08:54:47;13.80;;;7.73;;
15043;SDS011;7619;48.562;8.910;2023-04-16T08:57:17;9.37;;;6.63;;
15043;SDS011;7619;48.562;8.910;2023-04-16T08:59:45;11.70;;;7.77;;
15043;SDS011;7619;48.562;8.910;2023-04-16T09:02:13;10.63;;;7.47;;
15043;SDS011;7619;48.562;8.910;2023-04-16T09:04:42;12.27;;;8.10;;
15043;SDS011;7619;48.562;8.910;2023-04-16T09:07:10;10.60;;;8.03;;
15043;SDS011;7619;48.562;8.910;2023-04-16T09:09:39;9.03;;;7.37;;
15043;SDS011;7619;48.562;8.910;2023-04-16T09:12:07;10.17;;;6.70;;
15043;SDS011;7619;48.562;8.910;2023-04-16T09:14:35;12.23;;;7.00;;
15043;SDS011;7619;48.562;8.910;2023-04-16T09:17:05;12.37;;;7.27;;
15043;SDS011;7619;48.562;8.910;2023-04-16T09:19:33;10.43;;;7.10;;
15043;SDS011;7619;48.562;8.910;2023-04-16T09:22:01;11.97;;;7.33;;
15043;SDS011;7619;48.562;8.910;2023-04-16T09:24:29;11.23;;;7.23;;
15043;SDS011;7619;48.562;8.910;2023-04-16T09:26:58;12.20;;;8.07;;
15043;SDS011;7619;48.562;8.910;2023-04-16T09:29:32;8.97;;;6.37;;
15043;SDS011;7619;48.562;8.910;2023-04-16T09:32:01;9.20;;;5.73;;
15043;SDS011;7619;48.562;8.910;2023-04-16T09:34:31;10.37;;;7.57;;
15043;SDS011;7619;48.562;8.910;2023-04-16T09:37:13;9.67;;;7.00;;
15043;SDS011;7619;48.562;8.910;2023-04-16T09:39:42;10.40;;;6.00;;
15043;SDS011;7619;48.562;8.910;2023-04-16T09:42:11;11.33;;;6.70;;
15043;SDS011;7619;48.562;8.910;2023-04-16T09:44:39;11.40;;;7.10;;
15043;SDS011;7619;48.562;8.910;2023-04-16T09:47:07;11.73;;;6.40;;
15043;SDS011;7619;48.562;8.910;2023-04-16T09:49:40;10.83;;;6.87;;
15043;SDS011;7619;48.562;8.910;2023-04-16T09:52:08;11.93;;;7.27;;
15043;SDS011;7619;48.562;8.910;2023-04-16T09:54:38;10.80;;;7.43;;
15043;SDS011;7619;48.562;8.910;2023-04-16T09:57:08;10.77;;;7.20;;
15043;SDS011;7619;48.562;8.910;2023-04-16T09:59:36;11.17;;;7.83;;
15043;SDS011;7619;48.562;8.910;2023-04-16T10:02:04;12.60;;;7.40;;
15043;SDS011;7619;48.562;8.910;2023-04-16T10:04:44;11.90;;;7.53;;
15043;SDS011;7619;48.562;8.910;2023-04-16T10:07:12;11.27;;;7.37;;
15043;SDS011;7619;48.562;8.910;2023-04-16T10:09:40;14.00;;;7.70;;
15043;SDS011;7619;48.562;8.910;2023-04-16T10:12:09;10.30;;;6.80;;
15043;SDS011;7619;48.562;8.910;2023-04-16T10:14:38;11.47;;;7.27;;
15043;SDS011;7619;48.562;8.910;2023-04-16T10:17:07;13.77;;;7.37;;
15043;SDS011;7619;48.562;8.910;2023-04-16T10:19:35;13.33;;;7.33;;
15043;SDS011;7619;48.562;8.910;2023-04-16T10:22:03;11.40;;;8.00;;
15043;SDS011;7619;48.562;8.910;2023-04-16T10:24:32;11.40;;;6.87;;
15043;SDS011;7619;48.562;8.910;2023-04-16T10:27:00;10.40;;;7.33;;
15043;SDS011;7619;48.562;8.910;2023-04-16T10:29:29;12.47;;;7.27;;
15043;SDS011;7619;48.562;8.910;2023-04-16T10:31:58;14.77;;;7.13;;
15043;SDS011;7619;48.562;8.910;2023-04-16T10:34:26;13.37;;;8.20;;
15043;SDS011;7619;48.562;8.910;2023-04-16T10:36:55;10.90;;;7.63;;
15043;SDS011;7619;48.562;8.910;2023-04-16T10:39:23;12.87;;;7.30;;
15043;SDS011;7619;48.562;8.910;2023-04-16T10:42:05;11.73;;;7.80;;
15043;SDS011;7619;48.562;8.910;2023-04-16T10:44:21;12.93;;;7.73;;
15043;SDS011;7619;48.562;8.910;2023-04-16T10:46:50;11.33;;;7.97;;
15043;SDS011;7619;48.562;8.910;2023-04-16T10:49:22;11.33;;;7.10;;
15043;SDS011;7619;48.562;8.910;2023-04-16T10:51:53;14.07;;;8.37;;
15043;SDS011;7619;48.562;8.910;2023-04-16T10:54:25;13.60;;;7.97;;
15043;SDS011;7619;48.562;8.910;2023-04-16T10:56:55;14.20;;;8.17;;
15043;SDS011;7619;48.562;8.910;2023-04-16T10:59:23;12.83;;;7.77;;
15043;SDS011;7619;48.562;8.910;2023-04-16T11:01:52;12.83;;;7.07;;
15043;SDS011;7619;48.562;8.910;2023-04-16T11:04:27;12.70;;;7.97;;
15043;SDS011;7619;48.562;8.910;2023-04-16T11:07:03;12.40;;;7.77;;
15043;SDS011;7619;48.562;8.910;2023-04-16T11:09:41;38.87;;;14.77;;
15043;SDS011;7619;48.562;8.910;2023-04-16T11:12:11;13.67;;;7.97;;
15043;SDS011;7619;48.562;8.910;2023-04-16T11:14:39;12.30;;;8.03;;
15043;SDS011;7619;48.562;8.910;2023-04-16T11:17:07;11.17;;;6.93;;
15043;SDS011;7619;48.562;8.910;2023-04-16T11:19:35;11.40;;;7.17;;
15043;SDS011;7619;48.562;8.910;2023-04-16T11:22:04;11.20;;;7.07;;
15043;SDS011;7619;48.562;8.910;2023-04-16T11:24:32;11.73;;;7.10;;
15043;SDS011;7619;48.562;8.910;2023-04-16T11:27:00;10.83;;;7.10;;
15043;SDS011;7619;48.562;8.910;2023-04-16T11:29:28;9.57;;;6.87;;
15043;SDS011;7619;48.562;8.910;2023-04-16T11:31:56;10.10;;;6.73;;
15043;SDS011;7619;48.562;8.910;2023-04-16T11:34:24;9.77;;;6.73;;
15043;SDS011;7619;48.562;8.910;2023-04-16T11:36:52;10.37;;;6.83;;
15043;SDS011;7619;48.562;8.910;2023-04-16T11:39:21;11.73;;;6.77;;
15043;SDS011;7619;48.562;8.910;2023-04-16T11:41:50;10.03;;;6.20;;
15043;SDS011;7619;48.562;8.910;2023-04-16T11:44:19;7.70;;;5.87;;
15043;SDS011;7619;48.562;8.910;2023-04-16T11:46:47;8.40;;;5.13;;
15043;SDS011;7619;48.562;8.910;2023-04-16T11:49:16;9.27;;;6.17;;
15043;SDS011;7619;48.562;8.910;2023-04-16T11:51:44;8.23;;;5.80;;
15043;SDS011;7619;48.562;8.910;2023-04-16T11:54:19;10.07;;;6.07;;
15043;SDS011;7619;48.562;8.910;2023-04-16T11:56:48;8.60;;;5.33;;
15043;SDS011;7619;48.562;8.910;2023-04-16T11:59:17;9.10;;;5.70;;
15043;SDS011;7619;48.562;8.910;2023-04-16T12:01:46;8.87;;;5.93;;
15043;SDS011;7619;48.562;8.910;2023-04-16T12:04:15;8.23;;;5.73;;
15043;SDS011;7619;48.562;8.910;2023-04-16T12:09:29;7.90;;;5.47;;
15043;SDS011;7619;48.562;8.910;2023-04-16T12:11:57;8.47;;;4.73;;
15043;SDS011;7619;48.562;8.910;2023-04-16T12:14:26;8.50;;;4.60;;
15043;SDS011;7619;48.562;8.910;2023-04-16T12:16:54;9.40;;;5.40;;
15043;SDS011;7619;48.562;8.910;2023-04-16T12:19:22;7.17;;;5.30;;
15043;SDS011;7619;48.562;8.910;2023-04-16T12:21:51;8.13;;;4.87;;
15043;SDS011;7619;48.562;8.910;2023-04-16T12:24:20;8.50;;;5.20;;
15043;SDS011;7619;48.562;8.910;2023-04-16T12:26:51;8.57;;;5.43;;
15043;SDS011;7619;48.562;8.910;2023-04-16T12:29:23;6.70;;;4.17;;
15043;SDS011;7619;48.562;8.910;2023-04-16T12:31:52;8.47;;;5.30;;
15043;SDS011;7619;48.562;8.910;2023-04-16T12:34:20;5.87;;;4.37;;
15043;SDS011;7619;48.562;8.910;2023-04-16T12:36:49;8.37;;;4.80;;
15043;SDS011;7619;48.562;8.910;2023-04-16T12:39:18;7.60;;;5.20;;
15043;SDS011;7619;48.562;8.910;2023-04-16T12:41:46;6.33;;;4.77;;
15043;SDS011;7619;48.562;8.910;2023-04-16T12:44:15;6.30;;;4.83;;
15043;SDS011;7619;48.562;8.910;2023-04-16T12:46:43;6.70;;;4.40;;
15043;SDS011;7619;48.562;8.910;2023-04-16T12:49:12;5.77;;;4.20;;
15043;SDS011;7619;48.562;8.910;2023-04-16T12:51:40;7.83;;;4.97;;
15043;SDS011;7619;48.562;8.910;2023-04-16T12:54:08;5.10;;;3.23;;
15043;SDS011;7619;48.562;8.910;2023-04-16T12:56:36;4.23;;;3.37;;
15043;SDS011;7619;48.562;8.910;2023-04-16T12:59:04;3.47;;;3.10;;
15043;SDS011;7619;48.562;8.910;2023-04-16T13:01:32;3.93;;;3.30;;
15043;SDS011;7619;48.562;8.910;2023-04-16T13:04:02;5.20;;;3.23;;
15043;SDS011;7619;48.562;8.910;2023-04-16T13:06:30;4.13;;;3.20;;
15043;SDS011;7619;48.562;8.910;2023-04-16T13:08:59;3.27;;;2.97;;
15043;SDS011;7619;48.562;8.910;2023-04-16T13:11:27;3.27;;;2.63;;
15043;SDS011;7619;48.562;8.910;2023-04-16T13:13:55;5.20;;;2.83;;
15043;SDS011;7619;48.562;8.910;2023-04-16T13:16:23;3.23;;;2.57;;
15043;SDS011;7619;48.562;8.910;2023-04-16T13:18:52;4.13;;;3.17;;
15043;SDS011;7619;48.562;8.910;2023-04-16T13:21:20;5.07;;;2.77;;
15043;SDS011;7619;48.562;8.910;2023-04-16T13:23:49;2.90;;;2.53;;
15043;SDS011;7619;48.562;8.910;2023-04-16T13:26:17;2.97;;;2.40;;
15043;SDS011;7619;48.562;8.910;2023-04-16T13:28:45;4.03;;;3.10;;
15043;SDS011;7619;48.562;8.910;2023-04-16T13:31:13;2.60;;;2.40;;
15043;SDS011;7619;48.562;8.910;2023-04-16T13:33:43;2.30;;;1.90;;
15043;SDS011;7619;48.562;8.910;2023-04-16T13:36:11;2.00;;;1.60;;
15043;SDS011;7619;48.562;8.910;2023-04-16T13:38:39;2.00;;;1.60;;
15043;SDS011;7619;48.562;8.910;2023-04-16T13:41:08;1.67;;;1.50;;
15043;SDS011;7619;48.562;8.910;2023-04-16T13:43:36;1.70;;;1.60;;
15043;SDS011;7619;48.562;8.910;2023-04-16T13:46:04;2.13;;;1.80;;
15043;SDS011;7619;48.562;8.910;2023-04-16T13:48:32;1.57;;;1.33;;
15043;SDS011;7619;48.562;8.910;2023-04-16T13:51:00;2.00;;;1.60;;
15043;SDS011;7619;48.562;8.910;2023-04-16T13:53:28;1.90;;;1.60;;
15043;SDS011;7619;48.562;8.910;2023-04-16T13:55:57;1.40;;;1.23;;
15043;SDS011;7619;48.562;8.910;2023-04-16T13:58:25;1.60;;;1.33;;
15043;SDS011;7619;48.562;8.910;2023-04-16T14:00:53;1.47;;;1.20;;
15043;SDS011;7619;48.562;8.910;2023-04-16T14:03:21;1.47;;;1.30;;
15043;SDS011;7619;48.562;8.910;2023-04-16T14:05:49;2.07;;;1.50;;
15043;SDS011;7619;48.562;8.910;2023-04-16T14:08:18;1.50;;;1.30;;
15043;SDS011;7619;48.562;8.910;2023-04-16T14:10:47;1.90;;;1.37;;
15043;SDS011;7619;48.562;8.910;2023-04-16T14:13:15;3.03;;;1.37;;
15043;SDS011;7619;48.562;8.910;2023-04-16T14:15:43;1.60;;;1.50;;
15043;SDS011;7619;48.562;8.910;2023-04-16T14:18:11;1.57;;;1.20;;
15043;SDS011;7619;48.562;8.910;2023-04-16T14:20:39;2.03;;;1.43;;
15043;SDS011;7619;48.562;8.910;2023-04-16T14:23:10;1.43;;;1.10;;
15043;SDS011;7619;48.562;8.910;2023-04-16T14:25:39;1.70;;;1.33;;
15043;SDS011;7619;48.562;8.910;2023-04-16T14:28:07;1.40;;;1.27;;
15043;SDS011;7619;48.562;8.910;2023-04-16T14:30:36;0.73;;;0.73;;
15043;SDS011;7619;48.562;8.910;2023-04-16T14:33:04;1.30;;;1.00;;
15043;SDS011;7619;48.562;8.910;2023-04-16T14:35:32;4.00;;;1.13;;
15043;SDS011;7619;48.562;8.910;2023-04-16T14:38:01;1.70;;;1.40;;
15043;SDS011;7619;48.562;8.910;2023-04-16T14:40:29;1.10;;;1.00;;
15043;SDS011;7619;48.562;8.910;2023-04-16T14:42:57;1.67;;;1.30;;
15043;SDS011;7619;48.562;8.910;2023-04-16T14:45:25;1.60;;;1.13;;
15043;SDS011;7619;48.562;8.910;2023-04-16T14:47:55;0.93;;;0.90;;
15043;SDS011;7619;48.562;8.910;2023-04-16T14:50:23;2.50;;;1.03;;
15043;SDS011;7619;48.562;8.910;2023-04-16T14:52:52;1.37;;;1.23;;
15043;SDS011;7619;48.562;8.910;2023-04-16T14:55:20;1.40;;;1.30;;
15043;SDS011;7619;48.562;8.910;2023-04-16T14:57:48;0.80;;;0.80;;
15043;SDS011;7619;48.562;8.910;2023-04-16T15:00:17;1.90;;;1.20;;
15043;SDS011;7619;48.562;8.910;2023-04-16T15:02:45;1.67;;;1.20;;
15043;SDS011;7619;48.562;8.910;2023-04-16T15:05:13;2.93;;;1.30;;
15043;SDS011;7619;48.562;8.910;2023-04-16T15:07:42;2.20;;;1.60;;
15043;SDS011;7619;48.562;8.910;2023-04-16T15:10:11;2.77;;;1.53;;
15043;SDS011;7619;48.562;8.910;2023-04-16T15:12:39;1.77;;;1.67;;